Time;durP1;ratioP1;P1;durP2;ratioP2;P2;SDS_P1;SDS_P2;PMS_P1;PMS_P2;Temp;Humidity;BMP_temperature;BMP_pressure;BME280_temperature;BME280_humidity;BME280_pressure;Samples;Min_cycle;Max_cycle;Signal;HPM_P1;HPM_P2
2023/04/01 00:02:06;;;;;;;;;;;10.10;99.90;;;;;;5113404;28;20415;-74
2023/04/01 00:04:32;;;;;;;;;;;10.10;99.90;;;;;;5113604;28;20245;-70
2023/04/01 00:06:58;;;;;;;;;;;10.10;99.90;;;;;;5113736;28;19930;-68
2023/04/01 00:09:23;;;;;;;;;;;10.00;99.90;;;;;;5113364;28;19931;-68
2023/04/01 00:11:49;;;;;;;;;;;10.10;99.90;;;;;;5113459;28;19935;-67
2023/04/01 00:14:15;;;;;;;;;;;10.00;99.90;;;;;;5112937;28;20365;-67
2023/04/01 00:16:40;;;;;;;;;;;10.10;99.90;;;;;;5113462;28;20331;-69
2023/04/01 00:19:06;;;;;;;;;;;10.10;99.90;;;;;;5113555;28;19931;-74
2023/04/01 00:21:32;;;;;;;;;;;10.10;99.90;;;;;;5095346;28;19931;-68
2023/04/01 00:23:59;;;;;;;;;;;10.10;99.90;;;;;;5078302;28;19923;-68
2023/04/01 00:26:25;;;;;;;;;;;10.10;99.90;;;;;;5077520;28;20449;-68
2023/04/01 00:28:50;;;;;;;;;;;10.00;99.90;;;;;;5113202;28;19928;-68
2023/04/01 00:31:16;;;;;;;;;;;10.10;99.90;;;;;;5112805;28;19930;-68
2023/04/01 00:33:42;;;;;;;;;;;10.10;99.90;;;;;;5112861;28;20347;-68
2023/04/01 00:36:11;;;;;;;;;;;10.00;99.90;;;;;;5112534;28;19931;-70
2023/04/01 00:38:37;;;;;;;;;;;10.10;99.90;;;;;;5113083;28;19924;-68
2023/04/01 00:41:04;;;;;;;;;;;10.00;99.90;;;;;;5112985;28;19924;-68
2023/04/01 00:43:30;;;;;;;;;;;10.00;99.90;;;;;;5112536;28;19930;-67
2023/04/01 00:45:55;;;;;;;;;;;10.00;99.90;;;;;;5094816;28;20008;-67
2023/04/01 00:48:23;;;;;;;;;;;10.00;99.90;;;;;;5112309;28;20018;-68
2023/04/01 00:50:50;;;;;;;;;;;10.00;99.90;;;;;;5094629;28;20014;-69
2023/04/01 00:53:17;;;;;;;;;;;10.00;99.90;;;;;;5112290;28;19931;-69
2023/04/01 00:55:46;;;;;;;;;;;10.00;99.90;;;;;;5094091;28;19974;-68
2023/04/01 00:58:14;;;;;;;;;;;10.00;99.90;;;;;;5112644;28;19924;-73
2023/04/01 01:00:40;;;;;;;;;;;9.90;99.90;;;;;;5094385;28;20026;-69
2023/04/01 01:03:07;;;;;;;;;;;10.00;99.90;;;;;;5094551;28;19969;-69
2023/04/01 01:05:46;;;;;;;;;;;10.00;99.90;;;;;;5112075;28;20573;-68
2023/04/01 01:08:11;;;;;;;;;;;10.00;99.90;;;;;;5112596;28;20026;-68
2023/04/01 01:10:38;;;;;;;;;;;9.90;99.90;;;;;;5094067;28;19988;-68
2023/04/01 01:13:10;;;;;;;;;;;10.00;99.90;;;;;;5112407;28;19924;-68
2023/04/01 01:15:39;;;;;;;;;;;10.00;99.90;;;;;;5111935;28;19924;-68
2023/04/01 01:18:14;;;;;;;;;;;9.90;99.90;;;;;;5112682;28;19928;-68
2023/04/01 01:20:40;;;;;;;;;;;10.00;99.90;;;;;;5094300;28;20049;-69
2023/04/01 01:23:05;;;;;;;;;;;10.00;99.90;;;;;;5077639;28;19970;-69
2023/04/01 01:25:43;;;;;;;;;;;10.00;99.90;;;;;;5093412;28;20020;-69
2023/04/01 01:28:15;;;;;;;;;;;9.90;99.90;;;;;;5094567;28;19924;-69
2023/04/01 01:30:51;;;;;;;;;;;9.90;99.90;;;;;;5093802;28;19930;-69
2023/04/01 01:33:17;;;;;;;;;;;10.00;99.90;;;;;;5112550;28;19924;-75
2023/04/01 01:35:56;;;;;;;;;;;10.00;99.90;;;;;;5112087;28;19931;-68
2023/04/01 01:38:23;;;;;;;;;;;10.00;99.90;;;;;;5112069;28;20053;-68
2023/04/01 01:40:53;;;;;;;;;;;10.00;99.90;;;;;;5111978;28;20487;-68
2023/04/01 01:43:21;;;;;;;;;;;10.00;99.90;;;;;;5093927;28;20019;-73
2023/04/01 01:45:49;;;;;;;;;;;10.30;99.90;;;;;;5112209;28;19923;-68
2023/04/01 01:48:15;;;;;;;;;;;10.00;99.90;;;;;;5113315;28;19968;-68
2023/04/01 01:50:42;;;;;;;;;;;10.00;99.90;;;;;;5116113;28;20543;-68
2023/04/01 01:53:10;;;;;;;;;;;10.00;99.90;;;;;;5116319;28;19928;-68
2023/04/01 01:55:40;;;;;;;;;;;10.00;99.90;;;;;;5115755;28;19930;-67
2023/04/01 01:58:12;;;;;;;;;;;9.90;99.90;;;;;;5115901;28;20011;-68
2023/04/01 02:00:37;;;;;;;;;;;10.00;99.90;;;;;;5115662;28;19935;-68
2023/04/01 02:03:03;;;;;;;;;;;10.00;99.90;;;;;;5097550;28;19923;-67
2023/04/01 02:05:30;;;;;;;;;;;10.00;99.90;;;;;;5116104;28;20269;-69
2023/04/01 02:08:00;;;;;;;;;;;10.00;99.90;;;;;;5115675;28;20404;-67
2023/04/01 02:10:26;;;;;;;;;;;9.90;99.90;;;;;;5115618;28;19924;-69
2023/04/01 02:12:53;;;;;;;;;;;10.00;99.90;;;;;;5097981;28;19967;-68
2023/04/01 02:15:20;;;;;;;;;;;9.90;99.90;;;;;;5115109;28;19979;-71
2023/04/01 02:17:47;;;;;;;;;;;9.90;99.90;;;;;;5115400;28;19949;-69
2023/04/01 02:20:17;;;;;;;;;;;9.90;99.90;;;;;;5115725;28;19985;-68
2023/04/01 02:22:46;;;;;;;;;;;9.90;99.90;;;;;;5115429;28;19923;-68
2023/04/01 02:25:17;;;;;;;;;;;10.00;99.90;;;;;;5097060;28;19923;-70
2023/04/01 02:27:44;;;;;;;;;;;9.90;99.90;;;;;;5097459;28;20292;-70
2023/04/01 02:30:10;;;;;;;;;;;9.90;99.90;;;;;;5115703;28;19932;-69
2023/04/01 02:32:37;;;;;;;;;;;10.00;99.90;;;;;;5096976;28;20346;-68
2023/04/01 02:35:06;;;;;;;;;;;9.80;99.90;;;;;;5115517;28;19924;-68
2023/04/01 02:37:31;;;;;;;;;;;9.90;99.90;;;;;;5096859;28;20353;-68
2023/04/01 02:40:06;;;;;;;;;;;9.90;99.90;;;;;;5114753;28;19924;-67
2023/04/01 02:42:31;;;;;;;;;;;9.90;99.90;;;;;;5097174;28;20368;-68
2023/04/01 02:44:57;;;;;;;;;;;9.90;99.90;;;;;;5097078;28;20056;-69
2023/04/01 02:47:23;;;;;;;;;;;9.80;99.90;;;;;;5115368;28;19977;-69
2023/04/01 02:49:48;;;;;;;;;;;9.80;99.90;;;;;;5096575;28;19982;-68
2023/04/01 02:52:14;;;;;;;;;;;9.90;99.90;;;;;;5097025;28;19924;-68
2023/04/01 02:54:40;;;;;;;;;;;9.90;99.90;;;;;;5079504;28;19927;-69
2023/04/01 02:57:06;;;;;;;;;;;9.90;99.90;;;;;;5096993;28;19923;-67
2023/04/01 02:59:31;;;;;;;;;;;9.80;99.90;;;;;;5095565;28;19977;-71
2023/04/01 03:01:57;;;;;;;;;;;9.80;99.90;;;;;;5096433;28;19924;-68
2023/04/01 03:04:22;;;;;;;;;;;9.80;99.90;;;;;;5114997;28;19924;-67
2023/04/01 03:06:48;;;;;;;;;;;9.80;99.90;;;;;;5096277;28;19924;-67
2023/04/01 03:09:14;;;;;;;;;;;9.90;99.90;;;;;;5096732;28;19931;-68
2023/04/01 03:11:40;;;;;;;;;;;9.80;99.90;;;;;;5096323;28;19930;-67
2023/04/01 03:14:06;;;;;;;;;;;9.80;99.90;;;;;;5092875;28;19924;-67
2023/04/01 03:16:32;;;;;;;;;;;9.80;99.90;;;;;;5092725;28;19999;-74
2023/04/01 03:18:59;;;;;;;;;;;9.70;99.90;;;;;;5093322;28;19928;-67
2023/04/01 03:21:25;;;;;;;;;;;9.70;99.90;;;;;;5094153;28;20262;-68
2023/04/01 03:23:51;;;;;;;;;;;9.70;99.90;;;;;;5092749;28;19934;-67
2023/04/01 03:26:16;;;;;;;;;;;9.70;99.90;;;;;;5094250;28;19924;-67
2023/04/01 03:28:42;;;;;;;;;;;9.70;99.90;;;;;;5093664;28;20266;-68
2023/04/01 03:31:08;;;;;;;;;;;9.60;99.90;;;;;;5094083;28;20277;-67
2023/04/01 03:33:34;;;;;;;;;;;9.70;99.90;;;;;;5092327;28;20006;-74
2023/04/01 03:35:59;;;;;;;;;;;10.00;99.90;;;;;;5093649;28;19924;-68
2023/04/01 03:38:25;;;;;;;;;;;9.60;99.90;;;;;;5093710;28;20366;-67
2023/04/01 03:40:50;;;;;;;;;;;9.60;99.90;;;;;;5093491;28;20373;-70
2023/04/01 03:43:16;;;;;;;;;;;9.60;99.90;;;;;;5093402;28;20289;-68
2023/04/01 03:45:46;;;;;;;;;;;9.70;99.90;;;;;;5092780;28;19975;-67
2023/04/01 03:48:11;;;;;;;;;;;9.70;99.90;;;;;;5093519;28;19924;-68
2023/04/01 03:50:37;;;;;;;;;;;9.60;99.90;;;;;;5093258;28;19989;-74
2023/04/01 03:53:02;;;;;;;;;;;9.60;99.90;;;;;;5092102;28;19924;-68
2023/04/01 03:55:28;;;;;;;;;;;9.60;99.90;;;;;;5091872;28;19973;-68
2023/04/01 03:57:53;;;;;;;;;;;9.70;99.90;;;;;;5092010;28;19924;-67
2023/04/01 04:00:19;;;;;;;;;;;9.60;99.90;;;;;;5091917;28;19931;-69
2023/04/01 04:02:45;;;;;;;;;;;9.60;99.90;;;;;;5091947;28;19931;-67
2023/04/01 04:05:10;;;;;;;;;;;9.70;99.90;;;;;;5093358;28;20315;-66
2023/04/01 04:07:36;;;;;;;;;;;9.70;99.90;;;;;;5092226;28;20289;-66
2023/04/01 04:10:02;;;;;;;;;;;9.60;99.90;;;;;;5092453;28;19931;-67
2023/04/01 04:12:27;;;;;;;;;;;9.70;99.90;;;;;;5092598;28;19924;-67
2023/04/01 04:14:53;;;;;;;;;;;9.60;99.90;;;;;;5103292;28;19996;-67
2023/04/01 04:17:19;;;;;;;;;;;9.60;99.90;;;;;;5113283;28;19931;-67
2023/04/01 04:19:44;;;;;;;;;;;9.70;99.90;;;;;;5113313;28;19923;-67
2023/04/01 04:22:10;;;;;;;;;;;9.70;99.90;;;;;;5095676;28;19981;-67
2023/04/01 04:24:35;;;;;;;;;;;9.70;99.90;;;;;;5095415;28;20380;-68
2023/04/01 04:27:01;;;;;;;;;;;9.60;99.90;;;;;;5112650;28;19928;-69
2023/04/01 04:29:27;;;;;;;;;;;9.60;99.90;;;;;;5113256;28;19930;-67
2023/04/01 04:31:52;;;;;;;;;;;9.60;99.90;;;;;;5112868;28;20330;-67
2023/04/01 04:34:18;;;;;;;;;;;9.60;99.90;;;;;;5113103;28;20407;-67
2023/04/01 04:36:45;;;;;;;;;;;9.70;99.90;;;;;;5112776;28;20035;-74
2023/04/01 04:39:10;;;;;;;;;;;9.60;99.90;;;;;;5113176;28;19928;-68
2023/04/01 04:41:39;;;;;;;;;;;9.60;99.90;;;;;;5094543;28;19924;-68
2023/04/01 04:44:05;;;;;;;;;;;9.60;99.90;;;;;;5112655;28;19920;-68
2023/04/01 04:46:30;;;;;;;;;;;9.60;99.90;;;;;;5112919;28;19934;-68
2023/04/01 04:48:56;;;;;;;;;;;9.70;99.90;;;;;;5112563;28;19930;-74
2023/04/01 04:51:22;;;;;;;;;;;9.70;99.90;;;;;;5094803;28;19924;-69
2023/04/01 04:53:48;;;;;;;;;;;9.60;99.90;;;;;;5077594;28;20496;-68
2023/04/01 04:56:17;;;;;;;;;;;9.60;99.90;;;;;;5094650;28;20258;-69
2023/04/01 04:58:43;;;;;;;;;;;9.60;99.90;;;;;;5078022;28;20315;-70
2023/04/01 05:01:13;;;;;;;;;;;9.70;99.90;;;;;;5112642;28;19931;-68
2023/04/01 05:03:39;;;;;;;;;;;9.60;99.90;;;;;;5112800;28;20284;-68
2023/04/01 05:06:05;;;;;;;;;;;9.60;99.90;;;;;;5111983;28;20027;-68
2023/04/01 05:08:32;;;;;;;;;;;9.60;99.90;;;;;;5112494;28;20419;-68
2023/04/01 05:10:58;;;;;;;;;;;9.60;99.90;;;;;;5094242;28;19927;-68
2023/04/01 05:13:24;;;;;;;;;;;9.70;99.90;;;;;;5112315;28;19985;-67
2023/04/01 05:15:49;;;;;;;;;;;9.60;99.90;;;;;;5111982;28;20361;-72
2023/04/01 05:18:15;;;;;;;;;;;9.70;99.90;;;;;;5112043;28;20010;-67
2023/04/01 05:20:50;;;;;;;;;;;9.60;99.90;;;;;;5094242;28;19924;-66
2023/04/01 05:23:16;;;;;;;;;;;9.60;99.90;;;;;;5111414;28;20373;-67
2023/04/01 05:25:42;;;;;;;;;;;9.70;99.90;;;;;;5112207;28;19931;-67
2023/04/01 05:28:08;;;;;;;;;;;9.60;99.90;;;;;;5111551;28;19924;-67
2023/04/01 05:30:34;;;;;;;;;;;9.70;99.90;;;;;;5112221;28;19927;-67
2023/04/01 05:32:59;;;;;;;;;;;9.60;99.90;;;;;;5093379;28;20093;-67
2023/04/01 05:35:25;;;;;;;;;;;9.70;99.90;;;;;;5093930;28;19924;-68
2023/04/01 05:37:50;;;;;;;;;;;9.60;99.90;;;;;;5111796;28;19934;-75
2023/04/01 05:40:16;;;;;;;;;;;9.70;99.90;;;;;;5111908;28;20016;-67
2023/04/01 05:42:42;;;;;;;;;;;9.60;99.90;;;;;;5112034;28;20265;-71
2023/04/01 05:45:08;;;;;;;;;;;9.70;99.90;;;;;;5111719;28;19923;-67
2023/04/01 05:47:34;;;;;;;;;;;9.70;99.90;;;;;;5093708;28;20599;-67
2023/04/01 05:49:59;;;;;;;;;;;9.60;99.90;;;;;;5111684;28;19927;-67
2023/04/01 05:52:25;;;;;;;;;;;9.70;99.90;;;;;;5112052;28;20385;-69
2023/04/01 05:54:51;;;;;;;;;;;9.70;99.90;;;;;;5093788;28;19924;-69
2023/04/01 05:57:16;;;;;;;;;;;9.70;99.90;;;;;;5093624;28;19937;-67
2023/04/01 05:59:42;;;;;;;;;;;9.60;99.90;;;;;;5111982;28;19923;-72
2023/04/01 06:02:08;;;;;;;;;;;9.60;99.90;;;;;;5093557;28;19924;-71
2023/04/01 06:04:37;;;;;;;;;;;9.70;99.90;;;;;;5112302;28;20246;-70
2023/04/01 06:07:05;;;;;;;;;;;9.70;99.90;;;;;;5076688;28;20338;-71
2023/04/01 06:09:31;;;;;;;;;;;9.70;99.90;;;;;;5111611;28;19931;-70
2023/04/01 06:12:08;;;;;;;;;;;9.60;99.90;;;;;;5111673;28;19927;-78
2023/04/01 06:14:46;;;;;;;;;;;9.60;99.90;;;;;;5093379;28;20022;-70
2023/04/01 06:17:15;;;;;;;;;;;9.70;99.90;;;;;;5076736;28;19930;-72
2023/04/01 06:19:55;;;;;;;;;;;9.70;99.90;;;;;;5111742;28;20337;-71
2023/04/01 06:22:40;;;;;;;;;;;9.70;99.90;;;;;;5111528;28;19927;-71
2023/04/01 06:25:05;;;;;;;;;;;9.70;99.90;;;;;;5092669;28;20006;-71
2023/04/01 06:27:50;;;;;;;;;;;9.70;99.90;;;;;;5111683;28;20026;-74
2023/04/01 06:30:24;;;;;;;;;;;9.80;99.90;;;;;;5110635;28;19963;-70
2023/04/01 06:32:58;;;;;;;;;;;9.80;99.90;;;;;;5111749;28;20007;-70
2023/04/01 06:35:43;;;;;;;;;;;9.80;99.90;;;;;;5095825;28;19932;-71
2023/04/01 06:38:15;;;;;;;;;;;9.80;99.90;;;;;;5114975;28;19928;-71
2023/04/01 06:40:41;;;;;;;;;;;9.80;99.90;;;;;;5097072;28;20288;-71
2023/04/01 06:43:12;;;;;;;;;;;9.90;99.90;;;;;;5114837;28;19927;-71
2023/04/01 06:45:45;;;;;;;;;;;9.90;99.90;;;;;;5097090;28;19924;-69
2023/04/01 06:48:16;;;;;;;;;;;9.90;99.90;;;;;;5114822;28;19980;-69
2023/04/01 06:50:51;;;;;;;;;;;9.90;99.90;;;;;;5114963;28;20365;-73
2023/04/01 06:53:41;;;;;;;;;;;9.90;99.90;;;;;;5114717;28;19963;-75
2023/04/01 06:56:10;;;;;;;;;;;9.90;99.90;;;;;;5096877;28;19967;-72
2023/04/01 06:58:46;;;;;;;;;;;9.90;99.90;;;;;;5114938;28;19924;-72
2023/04/01 07:01:17;;;;;;;;;;;9.90;99.90;;;;;;5114533;28;19930;-71
2023/04/01 07:03:47;;;;;;;;;;;10.00;99.90;;;;;;5079709;28;19923;-71
2023/04/01 07:06:22;;;;;;;;;;;10.00;99.90;;;;;;5114032;28;20361;-72
2023/04/01 07:08:48;;;;;;;;;;;10.00;99.90;;;;;;5096283;28;19924;-72
2023/04/01 07:11:40;;;;;;;;;;;10.00;99.90;;;;;;5114184;28;19924;-72
2023/04/01 07:14:13;;;;;;;;;;;10.00;99.90;;;;;;5090951;28;19942;-79
2023/04/01 07:16:43;;;;;;;;;;;10.10;99.90;;;;;;5113631;28;20421;-72
2023/04/01 07:19:15;;;;;;;;;;;10.10;99.90;;;;;;5079282;28;19932;-77
2023/04/01 07:21:46;;;;;;;;;;;10.10;99.90;;;;;;5096330;28;20022;-71
2023/04/01 07:24:17;;;;;;;;;;;10.00;99.90;;;;;;5095826;28;19969;-70
2023/04/01 07:26:42;;;;;;;;;;;10.10;99.90;;;;;;5114515;28;19924;-69
2023/04/01 07:29:12;;;;;;;;;;;10.20;99.90;;;;;;5095547;28;20390;-80
2023/04/01 07:31:50;;;;;;;;;;;10.20;99.90;;;;;;5096264;28;19923;-72
2023/04/01 07:34:26;;;;;;;;;;;10.30;99.90;;;;;;5113603;28;19946;-72
2023/04/01 07:36:54;;;;;;;;;;;10.40;99.90;;;;;;5096222;28;19924;-70
2023/04/01 07:39:23;;;;;;;;;;;10.40;99.90;;;;;;5095697;28;19962;-71
2023/04/01 07:41:54;;;;;;;;;;;10.40;99.90;;;;;;5114501;28;19969;-74
2023/04/01 07:44:20;;;;;;;;;;;10.50;99.90;;;;;;5113092;28;19927;-75
2023/04/01 07:47:04;;;;;;;;;;;10.60;99.90;;;;;;5113885;28;20325;-73
2023/04/01 07:49:35;;;;;;;;;;;10.90;99.90;;;;;;5078820;28;20028;-73
2023/04/01 07:52:04;;;;;;;;;;;10.80;99.90;;;;;;5096291;28;20359;-74
2023/04/01 07:54:29;;;;;;;;;;;10.90;99.90;;;;;;5113464;28;20023;-72
2023/04/01 07:56:55;;;;;;;;;;;10.80;99.90;;;;;;5095614;28;20416;-73
2023/04/01 07:59:26;;;;;;;;;;;10.80;99.90;;;;;;5113547;28;20230;-73
2023/04/01 08:02:20;;;;;;;;;;;10.80;99.90;;;;;;5114121;28;19924;-73
2023/04/01 08:05:05;;;;;;;;;;;10.80;99.90;;;;;;5113837;28;20001;-75
2023/04/01 08:07:49;;;;;;;;;;;10.80;99.90;;;;;;5113361;28;19927;-73
2023/04/01 08:10:27;;;;;;;;;;;10.80;99.90;;;;;;5095481;28;19924;-77
2023/04/01 08:13:19;;;;;;;;;;;10.80;99.90;;;;;;5095918;28;19989;-74
2023/04/01 08:16:04;;;;;;;;;;;11.00;99.90;;;;;;5056492;28;20345;-72
2023/04/01 08:18:39;;;;;;;;;;;11.10;99.90;;;;;;5113172;28;20000;-74
2023/04/01 08:21:20;;;;;;;;;;;11.10;99.90;;;;;;5095117;28;19923;-76
2023/04/01 08:23:49;;;;;;;;;;;11.00;99.90;;;;;;5113601;28;19924;-76
2023/04/01 08:26:18;;;;;;;;;;;11.10;99.90;;;;;;5113413;28;19928;-77
2023/04/01 08:28:44;;;;;;;;;;;11.10;99.90;;;;;;5113665;28;19924;-74
2023/04/01 08:31:22;;;;;;;;;;;11.10;99.90;;;;;;5113260;28;19928;-74
2023/04/01 08:33:48;;;;;;;;;;;11.10;99.90;;;;;;5094932;28;19928;-75
2023/04/01 08:36:14;;;;;;;;;;;11.10;99.90;;;;;;5113308;28;20348;-74
2023/04/01 08:38:40;;;;;;;;;;;11.00;99.90;;;;;;5094669;28;19976;-74
2023/04/01 08:41:12;;;;;;;;;;;11.10;99.90;;;;;;5095279;28;19953;-74
2023/04/01 08:43:56;;;;;;;;;;;11.10;99.90;;;;;;5112935;28;19980;-73
2023/04/01 08:46:28;;;;;;;;;;;11.10;99.90;;;;;;5094777;28;20027;-75
2023/04/01 08:49:06;;;;;;;;;;;11.00;99.90;;;;;;5095149;28;20289;-72
2023/04/01 08:51:53;;;;;;;;;;;10.90;99.90;;;;;;5094643;28;19977;-74
2023/04/01 08:54:29;;;;;;;;;;;10.80;99.90;;;;;;5094951;28;19972;-78
2023/04/01 08:57:04;;;;;;;;;;;10.60;99.90;;;;;;5112526;28;19924;-75
2023/04/01 08:59:29;;;;;;;;;;;10.50;99.90;;;;;;5094625;28;20021;-75
2023/04/01 09:02:17;;;;;;;;;;;10.50;99.90;;;;;;5077881;28;20424;-74
2023/04/01 09:04:49;;;;;;;;;;;10.40;99.90;;;;;;5112713;28;20347;-74
2023/04/01 09:07:33;;;;;;;;;;;10.40;99.90;;;;;;5112386;28;20468;-74
2023/04/01 09:10:19;;;;;;;;;;;10.30;99.90;;;;;;5112547;28;19931;-75
2023/04/01 09:12:57;;;;;;;;;;;10.30;99.90;;;;;;5043510;28;19946;-75
2023/04/01 09:15:41;;;;;;;;;;;10.20;99.90;;;;;;5112168;28;20285;-77
2023/04/01 09:18:26;;;;;;;;;;;10.10;99.90;;;;;;5094672;28;20387;-72
2023/04/01 09:21:18;;;;;;;;;;;10.00;99.90;;;;;;5094561;28;20068;-74
2023/04/01 09:23:54;;;;;;;;;;;10.00;99.90;;;;;;5055492;28;19919;-75
2023/04/01 09:26:28;;;;;;;;;;;10.10;99.90;;;;;;5112306;28;19931;-73
2023/04/01 09:29:06;;;;;;;;;;;10.10;99.90;;;;;;5094163;28;20018;-74
2023/04/01 09:31:47;;;;;;;;;;;10.20;99.90;;;;;;5093770;28;20269;-74
2023/04/01 09:34:32;;;;;;;;;;;10.20;99.90;;;;;;5093963;28;19976;-73
2023/04/01 09:36:57;;;;;;;;;;;10.20;99.90;;;;;;5094575;28;19931;-73
2023/04/01 09:39:35;;;;;;;;;;;10.30;99.90;;;;;;5112266;28;19924;-73
2023/04/01 09:42:01;;;;;;;;;;;10.40;99.90;;;;;;5112094;28;20288;-74
2023/04/01 09:44:37;;;;;;;;;;;10.20;99.90;;;;;;5094024;28;19924;-75
2023/04/01 09:47:21;;;;;;;;;;;10.10;99.90;;;;;;5112290;28;20371;-74
2023/04/01 09:50:05;;;;;;;;;;;10.10;99.90;;;;;;5111671;28;20127;-73
2023/04/01 09:52:30;;;;;;;;;;;10.00;99.90;;;;;;5111478;28;19958;-74
2023/04/01 09:54:59;;;;;;;;;;;10.00;99.90;;;;;;5111829;28;20014;-72
2023/04/01 09:57:43;;;;;;;;;;;10.00;99.90;;;;;;5112242;28;19986;-72
2023/04/01 10:00:18;;;;;;;;;;;9.90;99.90;;;;;;5112111;28;19924;-72
2023/04/01 10:02:53;;;;;;;;;;;9.90;99.90;;;;;;5094039;28;19924;-73
2023/04/01 10:05:37;;;;;;;;;;;9.80;99.90;;;;;;5112101;28;19924;-72
2023/04/01 10:08:22;;;;;;;;;;;9.80;99.90;;;;;;5094168;28;20319;-73
2023/04/01 10:11:02;;;;;;;;;;;9.70;99.90;;;;;;5097049;28;19924;-78
2023/04/01 10:13:33;;;;;;;;;;;9.70;99.90;;;;;;5116183;28;20026;-74
2023/04/01 10:16:14;;;;;;;;;;;9.70;99.90;;;;;;5097293;28;19923;-71
2023/04/01 10:18:46;;;;;;;;;;;9.60;99.90;;;;;;5097567;28;19928;-71
2023/04/01 10:21:14;;;;;;;;;;;9.60;99.90;;;;;;5115766;28;19977;-71
2023/04/01 10:23:59;;;;;;;;;;;9.70;99.90;;;;;;5115518;28;19928;-71
2023/04/01 10:26:43;;;;;;;;;;;9.70;99.90;;;;;;5115599;28;19930;-69
2023/04/01 10:29:30;;;;;;;;;;;9.70;99.90;;;;;;5097361;28;19952;-70
2023/04/01 10:32:02;;;;;;;;;;;9.70;99.90;;;;;;5114914;28;19924;-69
2023/04/01 10:34:48;;;;;;;;;;;9.60;99.90;;;;;;5097091;28;19931;-69
2023/04/01 10:37:28;;;;;;;;;;;9.70;99.90;;;;;;5114808;28;19974;-70
2023/04/01 10:40:00;;;;;;;;;;;9.60;99.90;;;;;;5114730;28;20361;-69
2023/04/01 10:42:26;;;;;;;;;;;9.60;99.90;;;;;;5080155;28;19983;-70
2023/04/01 10:45:10;;;;;;;;;;;9.60;99.90;;;;;;5097253;28;19928;-68
2023/04/01 10:47:52;;;;;;;;;;;9.60;99.90;;;;;;5114659;28;19930;-75
2023/04/01 10:50:24;;;;;;;;;;;9.60;99.90;;;;;;5097614;28;19931;-70
2023/04/01 10:53:12;;;;;;;;;;;9.60;99.90;;;;;;5096631;28;19927;-69
2023/04/01 10:55:53;;;;;;;;;;;9.60;99.90;;;;;;5096562;28;19924;-75
2023/04/01 10:58:21;;;;;;;;;;;9.50;99.90;;;;;;5114861;28;19930;-69
2023/04/01 11:00:53;;;;;;;;;;;9.50;99.90;;;;;;5096800;28;19950;-70
2023/04/01 11:03:34;;;;;;;;;;;9.50;99.90;;;;;;5097557;28;19923;-72
2023/04/01 11:06:17;;;;;;;;;;;9.40;99.90;;;;;;5113811;28;20031;-69
2023/04/01 11:09:02;;;;;;;;;;;9.40;99.90;;;;;;5114988;28;19923;-69
2023/04/01 11:11:28;;;;;;;;;;;9.40;99.90;;;;;;5115064;28;19969;-69
2023/04/01 11:14:07;;;;;;;;;;;9.40;99.90;;;;;;5114889;28;19924;-70
2023/04/01 11:16:51;;;;;;;;;;;9.50;99.90;;;;;;5074064;28;20377;-72
2023/04/01 11:19:33;;;;;;;;;;;9.50;99.90;;;;;;5074277;28;19928;-69
2023/04/01 11:22:09;;;;;;;;;;;9.60;99.90;;;;;;5073829;28;19928;-70
2023/04/01 11:24:37;;;;;;;;;;;9.60;99.90;;;;;;5074389;28;19935;-70
2023/04/01 11:27:15;;;;;;;;;;;9.60;99.90;;;;;;5072981;28;19979;-68
2023/04/01 11:29:50;;;;;;;;;;;9.60;99.90;;;;;;5072675;28;19924;-71
2023/04/01 11:32:18;;;;;;;;;;;9.60;99.90;;;;;;5073102;28;19924;-69
2023/04/01 11:34:44;;;;;;;;;;;9.60;99.90;;;;;;5073766;28;19925;-69
2023/04/01 11:37:22;;;;;;;;;;;9.60;99.90;;;;;;5074174;28;19928;-70
2023/04/01 11:40:06;;;;;;;;;;;9.70;99.90;;;;;;5073702;28;19950;-70
2023/04/01 11:42:32;;;;;;;;;;;9.80;99.90;;;;;;5073705;28;19924;-70
2023/04/01 11:45:04;;;;;;;;;;;9.70;99.90;;;;;;5073593;28;20516;-70
2023/04/01 11:47:45;;;;;;;;;;;9.70;99.90;;;;;;5074015;28;20382;-70
2023/04/01 11:50:40;;;;;;;;;;;9.70;99.90;;;;;;5074036;28;19925;-70
2023/04/01 11:53:05;;;;;;;;;;;9.60;99.90;;;;;;5063895;28;19924;-69
2023/04/01 11:55:50;;;;;;;;;;;9.60;99.90;;;;;;5072371;28;19935;-70
2023/04/01 11:58:31;;;;;;;;;;;9.70;99.90;;;;;;5072874;28;20293;-69
2023/04/01 12:01:07;;;;;;;;;;;9.70;99.90;;;;;;5073206;28;19986;-70
2023/04/01 12:03:45;;;;;;;;;;;9.70;99.90;;;;;;5071862;28;19931;-71
2023/04/01 12:06:29;;;;;;;;;;;9.80;99.90;;;;;;5073604;28;20317;-70
2023/04/01 12:09:04;;;;;;;;;;;9.70;99.90;;;;;;5073070;28;19975;-70
2023/04/01 12:11:30;;;;;;;;;;;9.80;99.90;;;;;;5073643;28;19976;-69
2023/04/01 12:14:02;;;;;;;;;;;9.80;99.90;;;;;;5071193;28;19928;-70
2023/04/01 12:16:47;;;;;;;;;;;9.80;99.90;;;;;;5112577;28;19931;-70
2023/04/01 12:19:17;;;;;;;;;;;9.80;99.90;;;;;;5113821;28;20036;-69
2023/04/01 12:21:42;;;;;;;;;;;9.80;99.90;;;;;;5095840;28;19923;-69
2023/04/01 12:24:26;;;;;;;;;;;9.80;99.90;;;;;;5095258;28;20326;-69
2023/04/01 12:26:55;;;;;;;;;;;9.90;99.90;;;;;;5113218;28;19924;-69
2023/04/01 12:29:39;;;;;;;;;;;9.90;99.90;;;;;;5095680;28;19959;-71
2023/04/01 12:32:14;;;;;;;;;;;9.90;99.90;;;;;;5094154;28;20369;-69
2023/04/01 12:35:00;;;;;;;;;;;9.80;99.90;;;;;;5113448;28;19928;-69
2023/04/01 12:37:33;;;;;;;;;;;9.80;99.90;;;;;;5113204;28;20388;-69
2023/04/01 12:40:02;;;;;;;;;;;9.80;99.90;;;;;;5113128;28;19978;-70
2023/04/01 12:42:35;;;;;;;;;;;9.90;99.90;;;;;;5113428;28;19924;-68
2023/04/01 12:45:05;;;;;;;;;;;9.80;99.90;;;;;;5112983;28;19923;-70
2023/04/01 12:47:49;;;;;;;;;;;9.80;99.90;;;;;;5113385;28;19928;-70
2023/04/01 12:50:31;;;;;;;;;;;9.80;99.90;;;;;;5113065;28;20035;-69
2023/04/01 12:53:06;;;;;;;;;;;9.90;99.90;;;;;;5094613;28;20064;-69
2023/04/01 12:55:41;;;;;;;;;;;9.90;99.90;;;;;;5113157;28;19924;-69
2023/04/01 12:58:33;;;;;;;;;;;10.00;99.90;;;;;;5077841;28;19975;-70
2023/04/01 13:01:18;;;;;;;;;;;9.90;99.90;;;;;;5107552;28;20022;-69
2023/04/01 13:03:53;;;;;;;;;;;9.80;99.90;;;;;;5112962;28;19924;-69
2023/04/01 13:06:32;;;;;;;;;;;9.80;99.90;;;;;;5094959;28;19934;-70
2023/04/01 13:09:00;;;;;;;;;;;9.80;99.90;;;;;;5112510;28;19931;-69
2023/04/01 13:11:29;;;;;;;;;;;9.70;99.90;;;;;;5113046;28;19946;-70
2023/04/01 13:14:20;;;;;;;;;;;9.70;99.90;;;;;;5112456;28;19934;-77
2023/04/01 13:16:51;;;;;;;;;;;9.70;99.90;;;;;;5048441;28;19924;-72
2023/04/01 13:19:35;;;;;;;;;;;9.70;99.90;;;;;;5053907;28;19924;-70
2023/04/01 13:22:30;;;;;;;;;;;9.70;99.90;;;;;;5072021;28;19925;-70
2023/04/01 13:25:14;;;;;;;;;;;9.70;99.90;;;;;;5062375;28;19975;-78
2023/04/01 13:27:47;;;;;;;;;;;9.70;99.90;;;;;;5070939;28;19936;-69
2023/04/01 13:30:12;;;;;;;;;;;9.60;99.90;;;;;;5054145;28;20305;-70
2023/04/01 13:32:50;;;;;;;;;;;9.60;99.90;;;;;;5072037;28;19966;-69
2023/04/01 13:35:18;;;;;;;;;;;9.70;99.90;;;;;;5070284;28;19925;-70
2023/04/01 13:37:50;;;;;;;;;;;9.70;99.90;;;;;;5071553;28;19924;-72
2023/04/01 13:40:36;;;;;;;;;;;9.80;99.90;;;;;;5071804;28;19975;-69
2023/04/01 13:43:04;;;;;;;;;;;9.70;99.90;;;;;;5072517;28;19924;-70
2023/04/01 13:45:39;;;;;;;;;;;9.70;99.90;;;;;;5076068;28;19928;-71
2023/04/01 13:48:28;;;;;;;;;;;9.70;99.90;;;;;;5075526;28;19979;-71
2023/04/01 13:51:01;;;;;;;;;;;9.60;99.90;;;;;;5066327;28;19972;-70
2023/04/01 13:53:45;;;;;;;;;;;9.50;99.90;;;;;;5076135;28;19924;-69
2023/04/01 13:56:25;;;;;;;;;;;9.50;99.90;;;;;;5075481;28;19928;-69
2023/04/01 13:58:53;;;;;;;;;;;9.50;99.90;;;;;;5076065;28;19984;-69
2023/04/01 14:01:37;;;;;;;;;;;9.50;99.90;;;;;;5075908;28;19928;-70
2023/04/01 14:04:19;;;;;;;;;;;9.50;99.90;;;;;;5074534;28;19925;-70
2023/04/01 14:06:55;;;;;;;;;;;9.40;99.90;;;;;;5074710;28;19924;-70
2023/04/01 14:09:23;;;;;;;;;;;9.30;99.90;;;;;;5074467;28;19924;-70
2023/04/01 14:12:08;;;;;;;;;;;9.30;99.90;;;;;;5057208;28;19924;-71
2023/04/01 14:14:59;;;;;;;;;;;9.30;99.90;;;;;;5083176;28;19931;-69
2023/04/01 14:17:39;;;;;;;;;;;9.30;99.90;;;;;;5110214;28;19924;-69
2023/04/01 14:20:07;;;;;;;;;;;9.30;99.90;;;;;;5115899;28;19931;-73
2023/04/01 14:22:52;;;;;;;;;;;9.30;99.90;;;;;;5097841;28;20029;-70
2023/04/01 14:25:36;;;;;;;;;;;9.20;99.90;;;;;;5097527;28;19927;-70
2023/04/01 14:28:16;;;;;;;;;;;9.20;99.90;;;;;;5097921;28;20300;-70
2023/04/01 14:30:42;;;;;;;;;;;9.20;99.90;;;;;;5115498;28;19923;-70
2023/04/01 14:33:19;;;;;;;;;;;9.20;99.90;;;;;;5097308;28;19924;-69
2023/04/01 14:36:03;;;;;;;;;;;9.20;99.90;;;;;;5115606;28;19924;-68
2023/04/01 14:38:55;;;;;;;;;;;9.20;99.90;;;;;;5094644;28;19975;-74
2023/04/01 14:41:45;;;;;;;;;;;9.10;99.90;;;;;;5087552;28;20019;-68
2023/04/01 14:44:17;;;;;;;;;;;9.10;99.90;;;;;;5114643;28;19930;-68
2023/04/01 14:46:42;;;;;;;;;;;9.00;99.90;;;;;;5112442;28;19981;-69
2023/04/01 14:49:24;;;;;;;;;;;9.00;99.90;;;;;;5114163;28;19924;-68
2023/04/01 14:51:51;;;;;;;;;;;9.00;99.90;;;;;;5114773;28;20399;-68
2023/04/01 14:54:29;;;;;;;;;;;9.00;99.90;;;;;;5093956;28;20368;-67
2023/04/01 14:57:01;;;;;;;;;;;8.90;99.90;;;;;;5097021;28;19935;-68